sensor_id;sensor_type;location;lat;lon;timestamp;P1;durP1;ratioP1;P2;durP2;ratioP2
25549;SDS011;13444;50.562;7.262;2022-08-06T00:01:36;1.58;;;0.98;;
25549;SDS011;13444;50.562;7.262;2022-08-06T00:04:01;2.28;;;0.82;;
25549;SDS011;13444;50.562;7.262;2022-08-06T00:06:27;5.15;;;1.20;;
25549;SDS011;13444;50.562;7.262;2022-08-06T00:08:52;2.10;;;0.90;;
25549;SDS011;13444;50.562;7.262;2022-08-06T00:11:18;3.17;;;0.90;;
25549;SDS011;13444;50.562;7.262;2022-08-06T00:13:43;2.85;;;1.00;;
25549;SDS011;13444;50.562;7.262;2022-08-06T00:16:09;5.28;;;1.00;;
25549;SDS011;13444;50.562;7.262;2022-08-06T00:18:35;3.45;;;1.08;;
25549;SDS011;13444;50.562;7.262;2022-08-06T00:21:00;2.38;;;0.93;;
25549;SDS011;13444;50.562;7.262;2022-08-06T00:23:26;2.00;;;0.93;;
25549;SDS011;13444;50.562;7.262;2022-08-06T00:25:51;3.58;;;1.02;;
25549;SDS011;13444;50.562;7.262;2022-08-06T00:28:18;1.33;;;0.82;;
25549;SDS011;13444;50.562;7.262;2022-08-06T00:30:45;3.03;;;1.20;;
25549;SDS011;13444;50.562;7.262;2022-08-06T00:33:10;2.85;;;0.85;;
25549;SDS011;13444;50.562;7.262;2022-08-06T00:35:36;3.08;;;0.90;;
25549;SDS011;13444;50.562;7.262;2022-08-06T00:38:01;1.77;;;0.80;;
25549;SDS011;13444;50.562;7.262;2022-08-06T00:40:27;2.20;;;1.08;;
25549;SDS011;13444;50.562;7.262;2022-08-06T00:42:54;2.53;;;1.00;;
25549;SDS011;13444;50.562;7.262;2022-08-06T00:45:22;2.95;;;1.40;;
25549;SDS011;13444;50.562;7.262;2022-08-06T00:47:47;4.28;;;1.20;;
25549;SDS011;13444;50.562;7.262;2022-08-06T00:50:13;1.48;;;1.02;;
25549;SDS011;13444;50.562;7.262;2022-08-06T00:52:39;1.25;;;0.95;;
25549;SDS011;13444;50.562;7.262;2022-08-06T00:55:04;2.75;;;1.10;;
25549;SDS011;13444;50.562;7.262;2022-08-06T00:57:30;2.40;;;0.98;;
25549;SDS011;13444;50.562;7.262;2022-08-06T00:59:56;3.00;;;1.10;;
25549;SDS011;13444;50.562;7.262;2022-08-06T01:02:21;3.00;;;1.08;;
25549;SDS011;13444;50.562;7.262;2022-08-06T01:04:47;3.10;;;1.40;;
25549;SDS011;13444;50.562;7.262;2022-08-06T01:07:12;3.42;;;1.13;;
25549;SDS011;13444;50.562;7.262;2022-08-06T01:09:38;3.45;;;1.20;;
25549;SDS011;13444;50.562;7.262;2022-08-06T01:12:04;4.88;;;1.23;;
25549;SDS011;13444;50.562;7.262;2022-08-06T01:14:30;1.73;;;0.90;;
25549;SDS011;13444;50.562;7.262;2022-08-06T01:16:57;2.83;;;0.90;;
25549;SDS011;13444;50.562;7.262;2022-08-06T01:19:30;3.38;;;1.17;;
25549;SDS011;13444;50.562;7.262;2022-08-06T01:22:11;2.75;;;1.10;;
25549;SDS011;13444;50.562;7.262;2022-08-06T01:27:29;3.28;;;1.50;;
25549;SDS011;13444;50.562;7.262;2022-08-06T01:30:07;2.30;;;1.00;;
25549;SDS011;13444;50.562;7.262;2022-08-06T01:32:37;2.45;;;1.25;;
25549;SDS011;13444;50.562;7.262;2022-08-06T01:35:12;1.55;;;0.75;;
25549;SDS011;13444;50.562;7.262;2022-08-06T01:40:11;6.45;;;1.40;;
25549;SDS011;13444;50.562;7.262;2022-08-06T01:42:40;3.85;;;1.38;;
25549;SDS011;13444;50.562;7.262;2022-08-06T01:45:09;2.85;;;1.05;;
25549;SDS011;13444;50.562;7.262;2022-08-06T01:47:38;4.05;;;1.00;;
25549;SDS011;13444;50.562;7.262;2022-08-06T01:50:07;3.40;;;1.23;;
25549;SDS011;13444;50.562;7.262;2022-08-06T01:52:35;4.72;;;1.27;;
25549;SDS011;13444;50.562;7.262;2022-08-06T01:55:05;2.20;;;0.90;;
25549;SDS011;13444;50.562;7.262;2022-08-06T01:57:33;1.90;;;0.93;;
25549;SDS011;13444;50.562;7.262;2022-08-06T02:00:04;6.13;;;1.42;;
25549;SDS011;13444;50.562;7.262;2022-08-06T02:02:30;3.35;;;1.15;;
25549;SDS011;13444;50.562;7.262;2022-08-06T02:05:00;4.20;;;0.90;;
25549;SDS011;13444;50.562;7.262;2022-08-06T02:07:33;2.17;;;1.17;;
25549;SDS011;13444;50.562;7.262;2022-08-06T02:10:04;3.38;;;1.05;;
25549;SDS011;13444;50.562;7.262;2022-08-06T02:12:31;5.07;;;1.63;;
25549;SDS011;13444;50.562;7.262;2022-08-06T02:15:01;4.43;;;1.60;;
25549;SDS011;13444;50.562;7.262;2022-08-06T02:17:39;3.67;;;1.10;;
25549;SDS011;13444;50.562;7.262;2022-08-06T02:20:09;2.80;;;1.27;;
25549;SDS011;13444;50.562;7.262;2022-08-06T02:22:38;2.35;;;1.00;;
25549;SDS011;13444;50.562;7.262;2022-08-06T02:25:06;4.13;;;1.50;;
25549;SDS011;13444;50.562;7.262;2022-08-06T02:27:36;2.72;;;1.10;;
25549;SDS011;13444;50.562;7.262;2022-08-06T02:30:05;1.58;;;0.95;;
25549;SDS011;13444;50.562;7.262;2022-08-06T02:32:31;3.22;;;1.30;;
25549;SDS011;13444;50.562;7.262;2022-08-06T02:34:57;2.58;;;1.20;;
25549;SDS011;13444;50.562;7.262;2022-08-06T02:37:26;2.70;;;1.27;;
25549;SDS011;13444;50.562;7.262;2022-08-06T02:40:05;2.33;;;1.20;;
25549;SDS011;13444;50.562;7.262;2022-08-06T02:42:44;2.67;;;1.15;;
25549;SDS011;13444;50.562;7.262;2022-08-06T02:47:52;2.60;;;1.00;;
25549;SDS011;13444;50.562;7.262;2022-08-06T02:50:34;4.20;;;1.20;;
25549;SDS011;13444;50.562;7.262;2022-08-06T02:53:19;2.97;;;1.20;;
25549;SDS011;13444;50.562;7.262;2022-08-06T02:55:51;2.08;;;1.15;;
25549;SDS011;13444;50.562;7.262;2022-08-06T03:01:08;2.20;;;1.05;;
25549;SDS011;13444;50.562;7.262;2022-08-06T03:03:38;2.53;;;1.20;;
25549;SDS011;13444;50.562;7.262;2022-08-06T03:06:07;1.77;;;1.13;;
25549;SDS011;13444;50.562;7.262;2022-08-06T03:08:36;2.22;;;1.08;;
25549;SDS011;13444;50.562;7.262;2022-08-06T03:11:02;3.10;;;1.17;;
25549;SDS011;13444;50.562;7.262;2022-08-06T03:13:29;1.92;;;0.85;;
25549;SDS011;13444;50.562;7.262;2022-08-06T03:15:57;1.80;;;1.00;;
25549;SDS011;13444;50.562;7.262;2022-08-06T03:18:24;3.30;;;1.05;;
25549;SDS011;13444;50.562;7.262;2022-08-06T03:20:51;1.83;;;1.05;;
25549;SDS011;13444;50.562;7.262;2022-08-06T03:23:17;5.07;;;1.20;;
25549;SDS011;13444;50.562;7.262;2022-08-06T03:25:44;3.30;;;1.20;;
25549;SDS011;13444;50.562;7.262;2022-08-06T03:28:11;1.50;;;1.13;;
25549;SDS011;13444;50.562;7.262;2022-08-06T03:30:37;2.83;;;1.60;;
25549;SDS011;13444;50.562;7.262;2022-08-06T03:33:08;2.40;;;1.42;;
25549;SDS011;13444;50.562;7.262;2022-08-06T03:35:36;2.78;;;1.20;;
25549;SDS011;13444;50.562;7.262;2022-08-06T03:38:03;3.40;;;1.48;;
25549;SDS011;13444;50.562;7.262;2022-08-06T03:40:31;2.95;;;1.45;;
25549;SDS011;13444;50.562;7.262;2022-08-06T03:42:58;3.35;;;1.42;;
25549;SDS011;13444;50.562;7.262;2022-08-06T03:45:24;3.28;;;1.73;;
25549;SDS011;13444;50.562;7.262;2022-08-06T03:47:53;3.25;;;1.10;;
25549;SDS011;13444;50.562;7.262;2022-08-06T03:50:22;3.38;;;1.42;;
25549;SDS011;13444;50.562;7.262;2022-08-06T03:52:54;1.83;;;1.20;;
25549;SDS011;13444;50.562;7.262;2022-08-06T03:55:25;2.00;;;1.33;;
25549;SDS011;13444;50.562;7.262;2022-08-06T03:57:54;2.95;;;1.33;;
25549;SDS011;13444;50.562;7.262;2022-08-06T04:00:22;2.83;;;1.10;;
25549;SDS011;13444;50.562;7.262;2022-08-06T04:02:50;2.05;;;1.20;;
25549;SDS011;13444;50.562;7.262;2022-08-06T04:05:19;2.72;;;1.35;;
25549;SDS011;13444;50.562;7.262;2022-08-06T04:07:47;2.13;;;1.33;;
25549;SDS011;13444;50.562;7.262;2022-08-06T04:10:15;2.28;;;1.50;;
25549;SDS011;13444;50.562;7.262;2022-08-06T04:12:43;3.03;;;1.70;;
25549;SDS011;13444;50.562;7.262;2022-08-06T04:15:11;2.63;;;1.70;;
25549;SDS011;13444;50.562;7.262;2022-08-06T04:17:38;5.60;;;1.80;;
25549;SDS011;13444;50.562;7.262;2022-08-06T04:20:06;4.32;;;1.65;;
25549;SDS011;13444;50.562;7.262;2022-08-06T04:22:33;2.05;;;1.30;;
25549;SDS011;13444;50.562;7.262;2022-08-06T04:24:59;1.50;;;1.30;;
25549;SDS011;13444;50.562;7.262;2022-08-06T04:27:25;5.38;;;1.30;;
25549;SDS011;13444;50.562;7.262;2022-08-06T04:29:53;2.50;;;1.20;;
25549;SDS011;13444;50.562;7.262;2022-08-06T04:32:21;3.53;;;1.65;;
25549;SDS011;13444;50.562;7.262;2022-08-06T04:34:48;5.15;;;1.60;;
25549;SDS011;13444;50.562;7.262;2022-08-06T04:37:14;3.80;;;1.65;;
25549;SDS011;13444;50.562;7.262;2022-08-06T04:39:40;3.22;;;1.60;;
25549;SDS011;13444;50.562;7.262;2022-08-06T04:42:07;2.88;;;1.25;;
25549;SDS011;13444;50.562;7.262;2022-08-06T04:44:33;3.88;;;1.40;;
25549;SDS011;13444;50.562;7.262;2022-08-06T04:47:00;2.30;;;1.75;;
25549;SDS011;13444;50.562;7.262;2022-08-06T04:49:26;2.88;;;1.45;;
25549;SDS011;13444;50.562;7.262;2022-08-06T04:51:52;5.72;;;2.03;;
25549;SDS011;13444;50.562;7.262;2022-08-06T04:54:17;3.80;;;1.75;;
25549;SDS011;13444;50.562;7.262;2022-08-06T04:56:43;1.67;;;1.23;;
25549;SDS011;13444;50.562;7.262;2022-08-06T04:59:09;3.20;;;1.40;;
25549;SDS011;13444;50.562;7.262;2022-08-06T05:01:35;3.38;;;2.00;;
25549;SDS011;13444;50.562;7.262;2022-08-06T05:04:02;3.50;;;1.90;;
25549;SDS011;13444;50.562;7.262;2022-08-06T05:09:17;2.00;;;1.40;;
25549;SDS011;13444;50.562;7.262;2022-08-06T05:11:51;3.45;;;1.50;;
25549;SDS011;13444;50.562;7.262;2022-08-06T05:14:22;7.78;;;1.52;;
25549;SDS011;13444;50.562;7.262;2022-08-06T05:16:53;1.75;;;1.33;;
25549;SDS011;13444;50.562;7.262;2022-08-06T05:19:23;3.08;;;1.60;;
25549;SDS011;13444;50.562;7.262;2022-08-06T05:21:55;5.68;;;2.00;;
25549;SDS011;13444;50.562;7.262;2022-08-06T05:24:23;3.42;;;1.58;;
25549;SDS011;13444;50.562;7.262;2022-08-06T05:26:49;5.25;;;1.58;;
25549;SDS011;13444;50.562;7.262;2022-08-06T05:29:17;4.57;;;1.58;;
25549;SDS011;13444;50.562;7.262;2022-08-06T05:31:44;4.75;;;1.80;;
25549;SDS011;13444;50.562;7.262;2022-08-06T05:34:10;2.15;;;1.33;;
25549;SDS011;13444;50.562;7.262;2022-08-06T05:36:37;2.47;;;1.65;;
25549;SDS011;13444;50.562;7.262;2022-08-06T05:39:03;3.10;;;1.55;;
25549;SDS011;13444;50.562;7.262;2022-08-06T05:41:29;2.70;;;1.55;;
25549;SDS011;13444;50.562;7.262;2022-08-06T05:43:54;3.47;;;1.67;;
25549;SDS011;13444;50.562;7.262;2022-08-06T05:46:21;4.93;;;1.75;;
25549;SDS011;13444;50.562;7.262;2022-08-06T05:49:00;8.05;;;2.30;;
25549;SDS011;13444;50.562;7.262;2022-08-06T05:51:33;5.18;;;1.90;;
25549;SDS011;13444;50.562;7.262;2022-08-06T05:54:23;3.97;;;1.88;;
25549;SDS011;13444;50.562;7.262;2022-08-06T05:57:12;3.97;;;2.00;;
25549;SDS011;13444;50.562;7.262;2022-08-06T05:59:43;3.35;;;1.80;;
25549;SDS011;13444;50.562;7.262;2022-08-06T06:02:15;7.22;;;2.22;;
25549;SDS011;13444;50.562;7.262;2022-08-06T06:04:43;6.05;;;2.35;;
25549;SDS011;13444;50.562;7.262;2022-08-06T06:07:11;6.10;;;2.30;;
25549;SDS011;13444;50.562;7.262;2022-08-06T06:09:37;5.20;;;2.45;;
25549;SDS011;13444;50.562;7.262;2022-08-06T06:12:03;5.15;;;2.58;;
25549;SDS011;13444;50.562;7.262;2022-08-06T06:14:33;4.78;;;2.10;;
25549;SDS011;13444;50.562;7.262;2022-08-06T06:22:41;4.00;;;2.00;;
25549;SDS011;13444;50.562;7.262;2022-08-06T06:25:31;8.80;;;2.28;;
25549;SDS011;13444;50.562;7.262;2022-08-06T06:28:16;8.38;;;2.75;;
25549;SDS011;13444;50.562;7.262;2022-08-06T06:30:58;9.48;;;3.35;;
25549;SDS011;13444;50.562;7.262;2022-08-06T06:33:49;14.23;;;3.35;;
25549;SDS011;13444;50.562;7.262;2022-08-06T06:36:29;10.75;;;3.75;;
25549;SDS011;13444;50.562;7.262;2022-08-06T06:39:02;10.95;;;3.05;;
25549;SDS011;13444;50.562;7.262;2022-08-06T06:41:33;5.97;;;2.63;;
25549;SDS011;13444;50.562;7.262;2022-08-06T06:44:08;8.60;;;2.83;;
25549;SDS011;13444;50.562;7.262;2022-08-06T06:47:01;5.60;;;2.75;;
25549;SDS011;13444;50.562;7.262;2022-08-06T06:49:45;6.13;;;2.58;;
25549;SDS011;13444;50.562;7.262;2022-08-06T06:52:23;10.07;;;2.60;;
25549;SDS011;13444;50.562;7.262;2022-08-06T06:54:59;4.57;;;2.03;;
25549;SDS011;13444;50.562;7.262;2022-08-06T06:57:31;5.53;;;1.73;;
25549;SDS011;13444;50.562;7.262;2022-08-06T07:00:00;6.05;;;2.33;;
25549;SDS011;13444;50.562;7.262;2022-08-06T07:02:29;3.45;;;1.90;;
25549;SDS011;13444;50.562;7.262;2022-08-06T07:04:57;5.50;;;1.73;;
25549;SDS011;13444;50.562;7.262;2022-08-06T07:07:27;5.63;;;2.10;;
25549;SDS011;13444;50.562;7.262;2022-08-06T07:09:58;7.82;;;2.10;;
25549;SDS011;13444;50.562;7.262;2022-08-06T07:12:25;5.50;;;2.05;;
25549;SDS011;13444;50.562;7.262;2022-08-06T07:14:57;9.32;;;1.85;;
25549;SDS011;13444;50.562;7.262;2022-08-06T07:17:24;3.97;;;1.60;;
25549;SDS011;13444;50.562;7.262;2022-08-06T07:19:53;5.05;;;1.63;;
25549;SDS011;13444;50.562;7.262;2022-08-06T07:22:21;3.58;;;1.40;;
25549;SDS011;13444;50.562;7.262;2022-08-06T07:24:48;2.42;;;1.15;;
25549;SDS011;13444;50.562;7.262;2022-08-06T07:27:17;3.03;;;1.55;;
25549;SDS011;13444;50.562;7.262;2022-08-06T07:29:44;5.25;;;1.38;;
25549;SDS011;13444;50.562;7.262;2022-08-06T07:32:10;5.53;;;1.92;;
25549;SDS011;13444;50.562;7.262;2022-08-06T07:34:37;5.80;;;1.45;;
25549;SDS011;13444;50.562;7.262;2022-08-06T07:37:05;4.25;;;1.50;;
25549;SDS011;13444;50.562;7.262;2022-08-06T07:39:36;4.03;;;1.15;;
25549;SDS011;13444;50.562;7.262;2022-08-06T07:42:06;5.05;;;1.30;;
25549;SDS011;13444;50.562;7.262;2022-08-06T07:44:35;3.55;;;1.10;;
25549;SDS011;13444;50.562;7.262;2022-08-06T07:47:02;8.35;;;1.67;;
25549;SDS011;13444;50.562;7.262;2022-08-06T07:49:35;6.47;;;1.52;;
25549;SDS011;13444;50.562;7.262;2022-08-06T07:52:02;5.25;;;1.35;;
25549;SDS011;13444;50.562;7.262;2022-08-06T07:54:30;5.20;;;1.10;;
25549;SDS011;13444;50.562;7.262;2022-08-06T07:56:56;3.80;;;1.02;;
25549;SDS011;13444;50.562;7.262;2022-08-06T07:59:22;7.00;;;0.90;;
25549;SDS011;13444;50.562;7.262;2022-08-06T08:01:49;6.65;;;1.15;;
25549;SDS011;13444;50.562;7.262;2022-08-06T08:04:15;5.22;;;1.00;;
25549;SDS011;13444;50.562;7.262;2022-08-06T08:07:00;3.85;;;1.13;;
25549;SDS011;13444;50.562;7.262;2022-08-06T08:09:29;6.45;;;1.40;;
25549;SDS011;13444;50.562;7.262;2022-08-06T08:11:56;3.13;;;0.98;;
25549;SDS011;13444;50.562;7.262;2022-08-06T08:14:22;3.58;;;0.90;;
25549;SDS011;13444;50.562;7.262;2022-08-06T08:16:49;2.50;;;1.00;;
25549;SDS011;13444;50.562;7.262;2022-08-06T08:19:22;3.67;;;1.17;;
25549;SDS011;13444;50.562;7.262;2022-08-06T08:21:49;2.88;;;0.93;;
25549;SDS011;13444;50.562;7.262;2022-08-06T08:24:15;2.75;;;0.75;;
25549;SDS011;13444;50.562;7.262;2022-08-06T08:26:41;2.70;;;0.88;;
25549;SDS011;13444;50.562;7.262;2022-08-06T08:29:07;1.58;;;0.60;;
25549;SDS011;13444;50.562;7.262;2022-08-06T08:31:35;3.63;;;1.05;;
25549;SDS011;13444;50.562;7.262;2022-08-06T08:34:01;3.85;;;0.73;;
25549;SDS011;13444;50.562;7.262;2022-08-06T08:36:26;1.60;;;0.65;;
25549;SDS011;13444;50.562;7.262;2022-08-06T08:38:52;2.15;;;0.80;;
25549;SDS011;13444;50.562;7.262;2022-08-06T08:41:30;3.08;;;0.90;;
25549;SDS011;13444;50.562;7.262;2022-08-06T08:44:01;2.95;;;0.90;;
25549;SDS011;13444;50.562;7.262;2022-08-06T08:46:29;3.30;;;1.02;;
25549;SDS011;13444;50.562;7.262;2022-08-06T08:49:03;4.20;;;0.90;;
25549;SDS011;13444;50.562;7.262;2022-08-06T08:51:30;7.75;;;1.02;;
25549;SDS011;13444;50.562;7.262;2022-08-06T08:53:58;5.85;;;0.80;;
25549;SDS011;13444;50.562;7.262;2022-08-06T08:56:25;4.18;;;0.80;;
25549;SDS011;13444;50.562;7.262;2022-08-06T08:58:51;3.05;;;0.95;;
25549;SDS011;13444;50.562;7.262;2022-08-06T09:01:17;2.15;;;0.60;;
25549;SDS011;13444;50.562;7.262;2022-08-06T09:03:43;2.63;;;0.85;;
25549;SDS011;13444;50.562;7.262;2022-08-06T09:06:09;2.97;;;0.60;;
25549;SDS011;13444;50.562;7.262;2022-08-06T09:08:36;6.10;;;1.10;;
25549;SDS011;13444;50.562;7.262;2022-08-06T09:11:03;3.20;;;0.80;;
25549;SDS011;13444;50.562;7.262;2022-08-06T09:13:29;2.55;;;0.90;;
25549;SDS011;13444;50.562;7.262;2022-08-06T09:15:56;1.88;;;0.70;;
25549;SDS011;13444;50.562;7.262;2022-08-06T09:18:24;2.33;;;0.85;;
25549;SDS011;13444;50.562;7.262;2022-08-06T09:20:50;3.60;;;0.73;;
25549;SDS011;13444;50.562;7.262;2022-08-06T09:23:16;2.75;;;0.75;;
25549;SDS011;13444;50.562;7.262;2022-08-06T09:25:46;2.80;;;0.90;;
25549;SDS011;13444;50.562;7.262;2022-08-06T09:31:03;2.88;;;0.70;;
25549;SDS011;13444;50.562;7.262;2022-08-06T09:33:29;1.58;;;0.60;;
25549;SDS011;13444;50.562;7.262;2022-08-06T09:35:57;6.28;;;0.70;;
25549;SDS011;13444;50.562;7.262;2022-08-06T09:38:28;2.05;;;0.60;;
25549;SDS011;13444;50.562;7.262;2022-08-06T09:43:33;2.40;;;0.60;;
25549;SDS011;13444;50.562;7.262;2022-08-06T09:46:00;2.53;;;0.65;;
25549;SDS011;13444;50.562;7.262;2022-08-06T09:48:25;3.03;;;0.90;;
25549;SDS011;13444;50.562;7.262;2022-08-06T09:50:51;2.00;;;0.45;;
25549;SDS011;13444;50.562;7.262;2022-08-06T09:53:17;2.00;;;0.55;;
25549;SDS011;13444;50.562;7.262;2022-08-06T09:55:43;2.28;;;0.60;;
25549;SDS011;13444;50.562;7.262;2022-08-06T09:58:09;5.03;;;0.70;;
25549;SDS011;13444;50.562;7.262;2022-08-06T10:00:36;1.40;;;0.50;;
25549;SDS011;13444;50.562;7.262;2022-08-06T10:03:03;2.58;;;0.55;;
25549;SDS011;13444;50.562;7.262;2022-08-06T10:05:30;2.58;;;0.63;;
25549;SDS011;13444;50.562;7.262;2022-08-06T10:08:10;1.98;;;0.80;;
25549;SDS011;13444;50.562;7.262;2022-08-06T10:13:15;4.00;;;0.50;;
25549;SDS011;13444;50.562;7.262;2022-08-06T10:15:43;4.03;;;0.82;;
25549;SDS011;13444;50.562;7.262;2022-08-06T10:21:05;3.42;;;0.65;;
25549;SDS011;13444;50.562;7.262;2022-08-06T10:23:32;2.47;;;0.68;;
25549;SDS011;13444;50.562;7.262;2022-08-06T10:26:01;2.55;;;0.90;;
25549;SDS011;13444;50.562;7.262;2022-08-06T10:28:28;2.70;;;0.65;;
25549;SDS011;13444;50.562;7.262;2022-08-06T10:30:56;2.40;;;0.82;;
25549;SDS011;13444;50.562;7.262;2022-08-06T10:33:23;1.42;;;0.60;;
25549;SDS011;13444;50.562;7.262;2022-08-06T10:35:56;2.65;;;0.65;;
25549;SDS011;13444;50.562;7.262;2022-08-06T10:38:25;1.60;;;0.73;;
25549;SDS011;13444;50.562;7.262;2022-08-06T10:40:53;2.33;;;0.60;;
25549;SDS011;13444;50.562;7.262;2022-08-06T10:43:20;4.07;;;0.50;;
25549;SDS011;13444;50.562;7.262;2022-08-06T10:45:46;2.03;;;0.50;;
25549;SDS011;13444;50.562;7.262;2022-08-06T10:48:13;2.33;;;0.77;;
25549;SDS011;13444;50.562;7.262;2022-08-06T10:50:41;2.00;;;0.60;;
25549;SDS011;13444;50.562;7.262;2022-08-06T10:53:07;1.95;;;0.77;;
25549;SDS011;13444;50.562;7.262;2022-08-06T10:55:33;3.78;;;0.68;;
25549;SDS011;13444;50.562;7.262;2022-08-06T10:57:59;1.55;;;0.73;;
25549;SDS011;13444;50.562;7.262;2022-08-06T11:00:26;2.15;;;0.60;;
25549;SDS011;13444;50.562;7.262;2022-08-06T11:05:52;2.50;;;0.90;;
25549;SDS011;13444;50.562;7.262;2022-08-06T11:13:58;5.60;;;0.68;;
25549;SDS011;13444;50.562;7.262;2022-08-06T11:16:29;6.55;;;1.02;;
25549;SDS011;13444;50.562;7.262;2022-08-06T11:18:57;3.40;;;0.70;;
25549;SDS011;13444;50.562;7.262;2022-08-06T11:21:46;3.88;;;0.80;;
25549;SDS011;13444;50.562;7.262;2022-08-06T11:24:13;14.23;;;1.42;;
25549;SDS011;13444;50.562;7.262;2022-08-06T11:26:40;1.63;;;0.57;;
25549;SDS011;13444;50.562;7.262;2022-08-06T11:29:08;2.35;;;0.50;;
25549;SDS011;13444;50.562;7.262;2022-08-06T11:31:36;3.15;;;0.73;;
25549;SDS011;13444;50.562;7.262;2022-08-06T11:34:05;1.48;;;0.50;;
25549;SDS011;13444;50.562;7.262;2022-08-06T11:36:54;2.78;;;0.70;;
25549;SDS011;13444;50.562;7.262;2022-08-06T11:39:21;2.88;;;0.60;;
25549;SDS011;13444;50.562;7.262;2022-08-06T11:44:25;1.40;;;0.57;;
25549;SDS011;13444;50.562;7.262;2022-08-06T11:47:09;5.40;;;0.70;;
25549;SDS011;13444;50.562;7.262;2022-08-06T11:52:06;0.93;;;0.40;;
25549;SDS011;13444;50.562;7.262;2022-08-06T11:54:34;1.95;;;0.50;;
25549;SDS011;13444;50.562;7.262;2022-08-06T11:59:44;2.25;;;0.35;;
25549;SDS011;13444;50.562;7.262;2022-08-06T12:05:07;2.20;;;0.50;;
25549;SDS011;13444;50.562;7.262;2022-08-06T12:07:39;1.77;;;0.38;;
25549;SDS011;13444;50.562;7.262;2022-08-06T12:10:10;2.00;;;0.55;;
25549;SDS011;13444;50.562;7.262;2022-08-06T12:12:42;4.28;;;0.80;;
25549;SDS011;13444;50.562;7.262;2022-08-06T12:17:37;2.95;;;0.63;;
25549;SDS011;13444;50.562;7.262;2022-08-06T12:20:04;1.77;;;0.57;;
25549;SDS011;13444;50.562;7.262;2022-08-06T12:22:31;3.47;;;0.60;;
25549;SDS011;13444;50.562;7.262;2022-08-06T12:24:58;1.63;;;0.60;;
25549;SDS011;13444;50.562;7.262;2022-08-06T12:27:32;2.80;;;0.60;;
25549;SDS011;13444;50.562;7.262;2022-08-06T12:29:58;3.30;;;0.60;;
25549;SDS011;13444;50.562;7.262;2022-08-06T12:32:30;2.10;;;0.57;;
25549;SDS011;13444;50.562;7.262;2022-08-06T12:35:01;1.83;;;0.57;;
25549;SDS011;13444;50.562;7.262;2022-08-06T12:37:33;2.65;;;0.63;;
25549;SDS011;13444;50.562;7.262;2022-08-06T12:40:01;1.55;;;0.52;;
25549;SDS011;13444;50.562;7.262;2022-08-06T12:42:47;2.53;;;0.38;;
25549;SDS011;13444;50.562;7.262;2022-08-06T12:45:12;1.58;;;0.70;;
25549;SDS011;13444;50.562;7.262;2022-08-06T12:47:55;1.38;;;0.50;;
25549;SDS011;13444;50.562;7.262;2022-08-06T12:50:25;2.20;;;0.70;;
25549;SDS011;13444;50.562;7.262;2022-08-06T12:55:33;0.93;;;0.30;;
25549;SDS011;13444;50.562;7.262;2022-08-06T12:58:06;1.45;;;0.35;;
25549;SDS011;13444;50.562;7.262;2022-08-06T13:00:32;2.30;;;0.70;;
25549;SDS011;13444;50.562;7.262;2022-08-06T13:02:57;1.23;;;0.50;;
25549;SDS011;13444;50.562;7.262;2022-08-06T13:05:24;2.63;;;0.50;;
25549;SDS011;13444;50.562;7.262;2022-08-06T13:07:53;2.20;;;0.60;;
25549;SDS011;13444;50.562;7.262;2022-08-06T13:10:20;2.63;;;0.60;;
25549;SDS011;13444;50.562;7.262;2022-08-06T13:13:02;2.67;;;0.47;;
25549;SDS011;13444;50.562;7.262;2022-08-06T13:15:29;0.80;;;0.30;;
25549;SDS011;13444;50.562;7.262;2022-08-06T13:18:12;1.52;;;0.45;;
25549;SDS011;13444;50.562;7.262;2022-08-06T13:20:39;1.75;;;0.50;;
25549;SDS011;13444;50.562;7.262;2022-08-06T13:23:07;1.13;;;0.32;;
25549;SDS011;13444;50.562;7.262;2022-08-06T13:25:40;1.38;;;0.60;;
25549;SDS011;13444;50.562;7.262;2022-08-06T13:28:08;4.90;;;0.70;;
25549;SDS011;13444;50.562;7.262;2022-08-06T13:30:35;4.28;;;0.75;;
25549;SDS011;13444;50.562;7.262;2022-08-06T13:35:39;1.23;;;0.40;;
25549;SDS011;13444;50.562;7.262;2022-08-06T13:38:04;2.33;;;0.70;;
25549;SDS011;13444;50.562;7.262;2022-08-06T13:40:38;1.13;;;0.55;;
25549;SDS011;13444;50.562;7.262;2022-08-06T13:43:08;1.13;;;0.40;;
25549;SDS011;13444;50.562;7.262;2022-08-06T13:45:35;7.60;;;1.70;;
25549;SDS011;13444;50.562;7.262;2022-08-06T13:48:04;6.15;;;1.75;;
25549;SDS011;13444;50.562;7.262;2022-08-06T13:50:40;2.35;;;0.50;;
25549;SDS011;13444;50.562;7.262;2022-08-06T13:53:09;1.13;;;0.55;;
25549;SDS011;13444;50.562;7.262;2022-08-06T13:55:36;3.53;;;0.88;;
25549;SDS011;13444;50.562;7.262;2022-08-06T13:58:03;0.90;;;0.35;;
25549;SDS011;13444;50.562;7.262;2022-08-06T14:00:29;1.08;;;0.47;;
25549;SDS011;13444;50.562;7.262;2022-08-06T14:02:56;2.65;;;0.50;;
25549;SDS011;13444;50.562;7.262;2022-08-06T14:05:22;2.35;;;0.70;;
25549;SDS011;13444;50.562;7.262;2022-08-06T14:07:48;3.35;;;0.70;;
25549;SDS011;13444;50.562;7.262;2022-08-06T14:10:13;0.90;;;0.40;;
25549;SDS011;13444;50.562;7.262;2022-08-06T14:12:40;3.85;;;0.70;;
25549;SDS011;13444;50.562;7.262;2022-08-06T14:15:06;1.55;;;0.77;;
25549;SDS011;13444;50.562;7.262;2022-08-06T14:17:32;2.50;;;0.75;;
25549;SDS011;13444;50.562;7.262;2022-08-06T14:19:58;2.90;;;0.60;;
25549;SDS011;13444;50.562;7.262;2022-08-06T14:22:23;1.88;;;0.47;;
25549;SDS011;13444;50.562;7.262;2022-08-06T14:24:49;1.33;;;0.40;;
25549;SDS011;13444;50.562;7.262;2022-08-06T14:27:14;2.72;;;0.70;;
25549;SDS011;13444;50.562;7.262;2022-08-06T14:29:40;1.30;;;0.55;;
25549;SDS011;13444;50.562;7.262;2022-08-06T14:32:06;3.58;;;0.50;;
25549;SDS011;13444;50.562;7.262;2022-08-06T14:34:32;0.95;;;0.50;;
25549;SDS011;13444;50.562;7.262;2022-08-06T14:36:59;1.35;;;0.40;;
25549;SDS011;13444;50.562;7.262;2022-08-06T14:39:25;3.05;;;0.70;;
25549;SDS011;13444;50.562;7.262;2022-08-06T14:41:50;1.23;;;0.43;;
25549;SDS011;13444;50.562;7.262;2022-08-06T14:44:34;2.17;;;0.47;;
25549;SDS011;13444;50.562;7.262;2022-08-06T14:47:29;1.80;;;0.70;;
25549;SDS011;13444;50.562;7.262;2022-08-06T14:49:55;6.80;;;1.58;;
25549;SDS011;13444;50.562;7.262;2022-08-06T14:52:20;3.13;;;0.73;;
25549;SDS011;13444;50.562;7.262;2022-08-06T14:54:46;1.20;;;0.57;;
25549;SDS011;13444;50.562;7.262;2022-08-06T14:57:12;1.50;;;0.60;;
25549;SDS011;13444;50.562;7.262;2022-08-06T14:59:37;0.77;;;0.50;;
25549;SDS011;13444;50.562;7.262;2022-08-06T15:02:03;1.75;;;0.50;;
25549;SDS011;13444;50.562;7.262;2022-08-06T15:04:29;1.70;;;0.60;;
25549;SDS011;13444;50.562;7.262;2022-08-06T15:06:55;2.00;;;0.70;;
25549;SDS011;13444;50.562;7.262;2022-08-06T15:09:21;4.13;;;1.20;;
25549;SDS011;13444;50.562;7.262;2022-08-06T15:11:48;5.35;;;0.70;;
25549;SDS011;13444;50.562;7.262;2022-08-06T15:14:13;0.65;;;0.50;;
25549;SDS011;13444;50.562;7.262;2022-08-06T15:16:39;0.88;;;0.50;;
25549;SDS011;13444;50.562;7.262;2022-08-06T15:19:05;1.45;;;0.50;;
25549;SDS011;13444;50.562;7.262;2022-08-06T15:21:31;1.42;;;0.57;;
25549;SDS011;13444;50.562;7.262;2022-08-06T15:23:57;1.75;;;0.60;;
25549;SDS011;13444;50.562;7.262;2022-08-06T15:26:23;1.77;;;0.50;;
25549;SDS011;13444;50.562;7.262;2022-08-06T15:28:50;0.95;;;0.60;;
25549;SDS011;13444;50.562;7.262;2022-08-06T15:31:16;1.58;;;0.63;;
25549;SDS011;13444;50.562;7.262;2022-08-06T15:33:42;3.25;;;0.80;;
25549;SDS011;13444;50.562;7.262;2022-08-06T15:36:08;2.38;;;0.70;;
25549;SDS011;13444;50.562;7.262;2022-08-06T15:38:33;5.00;;;0.70;;
25549;SDS011;13444;50.562;7.262;2022-08-06T15:40:59;1.55;;;0.68;;
25549;SDS011;13444;50.562;7.262;2022-08-06T15:43:25;1.45;;;0.50;;
25549;SDS011;13444;50.562;7.262;2022-08-06T15:45:52;3.65;;;0.60;;
25549;SDS011;13444;50.562;7.262;2022-08-06T15:48:18;1.92;;;0.70;;
25549;SDS011;13444;50.562;7.262;2022-08-06T15:50:46;2.10;;;0.55;;
25549;SDS011;13444;50.562;7.262;2022-08-06T15:53:15;2.85;;;0.50;;
25549;SDS011;13444;50.562;7.262;2022-08-06T15:55:41;1.83;;;0.63;;